createdAt,value
2023-05-07T00:05:54.468Z,17.52
2023-05-07T00:12:56.068Z,14.50
2023-05-07T00:19:57.621Z,11.38
2023-05-07T00:26:59.187Z,13.15
2023-05-07T00:34:00.737Z,14.55
2023-05-07T00:41:03.383Z,11.63
2023-05-07T00:48:04.990Z,12.85
2023-05-07T00:55:07.680Z,11.35
2023-05-07T01:02:09.248Z,14.05
2023-05-07T01:09:11.111Z,15.85
2023-05-07T01:16:12.722Z,13.48
2023-05-07T01:23:14.912Z,14.82
2023-05-07T01:30:17.433Z,13.13
2023-05-07T01:37:19.672Z,14.30
2023-05-07T01:44:21.249Z,14.80
2023-05-07T01:51:23.193Z,11.60
2023-05-07T01:58:24.784Z,12.60
2023-05-07T02:05:26.469Z,13.27
2023-05-07T02:12:34.814Z,12.35
2023-05-07T02:19:36.619Z,13.68
2023-05-07T02:26:38.839Z,12.25
2023-05-07T02:33:41.231Z,13.10
2023-05-07T02:40:44.867Z,13.25
2023-05-07T02:47:47.346Z,14.70
2023-05-07T02:54:49.441Z,14.98
2023-05-07T03:01:51.364Z,13.27
2023-05-07T03:08:53.251Z,17.67
2023-05-07T03:15:54.894Z,13.25
2023-05-07T03:22:56.499Z,13.63
2023-05-07T03:29:58.325Z,14.93
2023-05-07T03:37:01.316Z,13.85
2023-05-07T03:44:03.027Z,12.20
2023-05-07T03:51:04.906Z,7.80
2023-05-07T03:58:08.500Z,12.57
2023-05-07T04:05:10.526Z,12.18
2023-05-07T04:12:14.334Z,9.02
2023-05-07T04:19:15.919Z,10.98
2023-05-07T04:26:17.714Z,11.70
2023-05-07T04:33:20.750Z,12.18
2023-05-07T04:40:24.031Z,11.63
2023-05-07T04:47:25.783Z,9.95
2023-05-07T04:54:27.809Z,11.35
2023-05-07T05:01:29.668Z,12.18
2023-05-07T05:08:32.098Z,11.07
2023-05-07T05:15:34.523Z,9.32
2023-05-07T05:22:37.352Z,10.65
2023-05-07T05:29:39.226Z,10.52
2023-05-07T05:36:40.821Z,8.65
2023-05-07T05:43:43.000Z,11.25
2023-05-07T05:50:46.061Z,11.85
2023-05-07T05:57:49.505Z,9.68
2023-05-07T06:04:51.203Z,10.40
2023-05-07T06:11:55.363Z,10.07
2023-05-07T06:18:57.384Z,8.55
2023-05-07T06:25:59.426Z,9.82
2023-05-07T06:33:06.635Z,9.18
2023-05-07T06:40:09.097Z,9.93
2023-05-07T06:47:15.832Z,11.02
2023-05-07T06:54:19.816Z,12.93
2023-05-07T07:01:22.143Z,8.73
2023-05-07T07:08:24.615Z,9.75
2023-05-07T07:15:27.342Z,11.15
2023-05-07T07:22:30.941Z,9.85
2023-05-07T07:29:32.668Z,8.88
2023-05-07T07:36:45.105Z,8.30
2023-05-07T07:43:50.631Z,8.48
2023-05-07T07:50:55.860Z,8.02
2023-05-07T07:57:57.960Z,11.95
2023-05-07T08:04:59.996Z,6.68
2023-05-07T08:12:02.126Z,7.35
2023-05-07T08:19:06.930Z,7.82
2023-05-07T08:26:09.508Z,6.80
2023-05-07T08:33:12.267Z,6.82
2023-05-07T08:40:14.816Z,5.97
2023-05-07T08:47:17.495Z,6.95
2023-05-07T08:54:20.750Z,7.88
2023-05-07T09:01:23.347Z,8.18
2023-05-07T09:08:27.686Z,7.40
2023-05-07T09:15:31.644Z,13.63
2023-05-07T09:22:34.011Z,7.88
2023-05-07T09:29:39.792Z,6.63
2023-05-07T09:36:42.013Z,7.03
2023-05-07T09:43:44.353Z,6.55
2023-05-07T09:50:50.745Z,5.10
2023-05-07T09:57:56.485Z,6.15
2023-05-07T10:05:01.262Z,5.55
2023-05-07T10:12:06.994Z,6.07
2023-05-07T10:19:12.803Z,6.68
2023-05-07T10:26:18.469Z,4.95
2023-05-07T10:33:21.128Z,5.25
2023-05-07T10:40:22.765Z,6.88
2023-05-07T10:47:26.383Z,6.68
2023-05-07T10:54:37.410Z,5.53
2023-05-07T11:02:07.360Z,5.68
2023-05-07T11:09:53.374Z,5.53
2023-05-07T11:17:04.549Z,5.03
2023-05-07T11:24:13.815Z,5.30
2023-05-07T11:31:26.872Z,5.93
2023-05-07T11:38:29.457Z,5.57
2023-05-07T11:45:31.098Z,6.53
2023-05-07T11:52:33.104Z,5.57
2023-05-07T11:59:45.226Z,4.85
2023-05-07T12:06:46.770Z,5.22
2023-05-07T12:13:48.404Z,4.07
2023-05-07T12:20:51.176Z,4.28
2023-05-07T12:27:53.618Z,3.90
2023-05-07T12:34:55.209Z,7.10
2023-05-07T12:42:00.262Z,8.77
2023-05-07T12:49:02.014Z,2.88
2023-05-07T12:56:03.771Z,6.07
2023-05-07T13:03:05.698Z,3.70
2023-05-07T13:10:07.922Z,4.30
2023-05-07T13:17:09.450Z,5.38
2023-05-07T13:24:11.016Z,4.30
2023-05-07T13:31:12.647Z,5.32
2023-05-07T13:38:14.235Z,4.93
2023-05-07T13:45:16.131Z,3.92
2023-05-07T13:52:17.936Z,5.95
2023-05-07T13:59:19.531Z,4.97
2023-05-07T14:06:21.316Z,6.90
2023-05-07T14:13:24.076Z,4.88
2023-05-07T14:20:26.198Z,4.55
2023-05-07T14:27:27.771Z,5.13
2023-05-07T14:34:29.383Z,4.53
2023-05-07T14:41:32.146Z,5.60
2023-05-07T14:48:33.691Z,5.13
2023-05-07T14:55:35.869Z,6.07
2023-05-07T15:02:37.566Z,5.50
2023-05-07T15:09:39.273Z,3.38
2023-05-07T15:16:41.122Z,4.13
2023-05-07T15:23:42.705Z,5.03
2023-05-07T15:30:44.255Z,4.20
2023-05-07T15:37:45.844Z,5.13
2023-05-07T15:44:47.469Z,4.53
2023-05-07T15:51:49.094Z,4.60
2023-05-07T15:58:50.657Z,5.30
2023-05-07T16:05:52.243Z,4.60
2023-05-07T16:12:54.171Z,3.97
2023-05-07T16:19:55.717Z,3.95
2023-05-07T16:26:57.255Z,4.10
2023-05-07T16:33:59.700Z,4.32
2023-05-07T16:41:01.615Z,5.63
2023-05-07T16:48:04.055Z,5.03
2023-05-07T16:55:06.134Z,5.88
2023-05-07T17:02:07.750Z,4.60
2023-05-07T17:09:09.404Z,5.22
2023-05-07T17:16:11.002Z,4.90
2023-05-07T17:23:13.295Z,5.97
2023-05-07T17:30:15.739Z,4.43
2023-05-07T17:37:17.460Z,4.68
2023-05-07T17:44:19.080Z,7.57
2023-05-07T17:51:20.724Z,3.97
2023-05-07T17:58:24.490Z,4.10
2023-05-07T18:05:26.816Z,5.88
2023-05-07T18:12:28.449Z,6.40
2023-05-07T18:19:29.984Z,5.65
2023-05-07T18:26:31.590Z,9.60
2023-05-07T18:33:33.243Z,6.72
2023-05-07T18:40:34.793Z,5.30
2023-05-07T18:47:36.413Z,6.18
2023-05-07T18:54:37.971Z,3.70
2023-05-07T19:01:39.616Z,5.22
2023-05-07T19:08:41.223Z,5.50
2023-05-07T19:15:42.809Z,5.53
2023-05-07T19:22:44.355Z,5.28
2023-05-07T19:29:45.952Z,5.03
2023-05-07T19:36:47.509Z,4.75
2023-05-07T19:43:49.020Z,6.78
2023-05-07T19:50:51.318Z,11.10
2023-05-07T19:57:52.839Z,6.13
2023-05-07T20:04:55.125Z,5.88
2023-05-07T20:11:57.031Z,6.07
2023-05-07T20:18:58.552Z,6.40
2023-05-07T20:26:00.107Z,7.00
2023-05-07T20:33:03.900Z,7.10
2023-05-07T20:40:07.131Z,7.45
2023-05-07T20:47:08.800Z,6.40
2023-05-07T20:54:10.912Z,7.45
2023-05-07T21:01:12.491Z,6.57
2023-05-07T21:08:14.030Z,8.43
2023-05-07T21:15:15.704Z,6.35
2023-05-07T21:22:17.247Z,5.55
2023-05-07T21:29:19.642Z,6.75
2023-05-07T21:36:21.170Z,7.57
2023-05-07T21:43:22.716Z,9.23
2023-05-07T21:50:24.257Z,9.93
2023-05-07T21:57:26.216Z,7.57
2023-05-07T22:04:27.759Z,9.40
2023-05-07T22:11:29.306Z,7.63
2023-05-07T22:18:30.868Z,6.57
2023-05-07T22:25:34.498Z,7.38
2023-05-07T22:32:36.298Z,7.25
2023-05-07T22:39:37.866Z,7.53
2023-05-07T22:46:39.539Z,7.10
2023-05-07T22:53:41.211Z,6.90
2023-05-07T23:00:42.823Z,8.80
2023-05-07T23:07:46.966Z,8.93
2023-05-07T23:14:48.866Z,8.20
2023-05-07T23:21:50.500Z,8.65
2023-05-07T23:28:52.027Z,7.07
2023-05-07T23:36:00.635Z,8.98
2023-05-07T23:43:03.019Z,8.88
2023-05-07T23:50:05.206Z,6.57
2023-05-07T23:57:11.570Z,8.27
